createdAt,value
2023-04-20T00:00:45.161Z,1016.64
2023-04-20T00:01:45.192Z,1016.60
2023-04-20T00:02:45.274Z,1016.61
2023-04-20T00:03:45.334Z,1016.60
2023-04-20T00:04:45.166Z,1016.60
2023-04-20T00:05:45.073Z,1016.60
2023-04-20T00:06:45.098Z,1016.60
2023-04-20T00:07:45.091Z,1016.56
2023-04-20T00:08:45.058Z,1016.55
2023-04-20T00:09:45.067Z,1016.54
2023-04-20T00:10:45.112Z,1016.53
2023-04-20T00:11:45.094Z,1016.52
2023-04-20T00:12:45.024Z,1016.47
2023-04-20T00:13:45.023Z,1016.47
2023-04-20T00:14:45.025Z,1016.44
2023-04-20T00:15:44.968Z,1016.41
2023-04-20T00:16:45.054Z,1016.38
2023-04-20T00:17:45.045Z,1016.35
2023-04-20T00:18:44.997Z,1016.32
2023-04-20T00:19:44.964Z,1016.29
2023-04-20T00:20:44.930Z,1016.30
2023-04-20T00:21:44.918Z,1016.26
2023-04-20T00:22:44.929Z,1016.25
2023-04-20T00:23:44.960Z,1016.28
2023-04-20T00:24:44.987Z,1016.23
2023-04-20T00:25:44.926Z,1016.19
2023-04-20T00:26:44.945Z,1016.21
2023-04-20T00:27:44.903Z,1016.18
2023-04-20T00:28:44.935Z,1016.18
2023-04-20T00:29:45.080Z,1016.18
2023-04-20T00:30:44.939Z,1016.21
2023-04-20T00:31:44.979Z,1016.15
2023-04-20T00:32:45.054Z,1016.15
2023-04-20T00:33:44.849Z,1016.12
2023-04-20T00:34:44.868Z,1016.09
2023-04-20T00:35:44.807Z,1016.07
2023-04-20T00:36:44.767Z,1016.05
2023-04-20T00:37:44.779Z,1015.99
2023-04-20T00:38:44.755Z,1016.01
2023-04-20T00:39:44.728Z,1016.01
2023-04-20T00:40:44.750Z,1015.94
2023-04-20T00:41:44.732Z,1015.94
2023-04-20T00:42:45.694Z,1015.92
2023-04-20T00:43:44.740Z,1015.91
2023-04-20T00:44:44.690Z,1015.92
2023-04-20T00:45:44.690Z,1015.87
2023-04-20T00:46:44.722Z,1015.86
2023-04-20T00:47:44.746Z,1015.83
2023-04-20T00:48:44.681Z,1015.76
2023-04-20T00:49:44.684Z,1015.75
2023-04-20T00:50:44.656Z,1015.73
2023-04-20T00:51:44.643Z,1015.74
2023-04-20T00:52:44.603Z,1015.73
2023-04-20T00:53:44.586Z,1015.72
2023-04-20T00:54:44.650Z,1015.70
2023-04-20T00:55:44.611Z,1015.68
2023-04-20T00:56:44.580Z,1015.65
2023-04-20T00:57:44.593Z,1015.62
2023-04-20T00:58:44.559Z,1015.60
2023-04-20T00:59:44.537Z,1015.58
2023-04-20T01:00:44.511Z,1015.58
2023-04-20T01:01:44.520Z,1015.56
2023-04-20T01:02:44.624Z,1015.56
2023-04-20T01:03:44.601Z,1015.54
2023-04-20T01:04:44.483Z,1015.53
2023-04-20T01:05:44.469Z,1015.49
2023-04-20T01:06:44.506Z,1015.45
2023-04-20T01:07:44.450Z,1015.46
2023-04-20T01:08:44.461Z,1015.43
2023-04-20T01:09:44.432Z,1015.44
2023-04-20T01:10:44.418Z,1015.41
2023-04-20T01:11:44.414Z,1015.42
2023-04-20T01:12:44.448Z,1015.41
2023-04-20T01:13:44.427Z,1015.43
2023-04-20T01:14:44.417Z,1015.39
2023-04-20T01:15:44.412Z,1015.38
2023-04-20T01:16:44.358Z,1015.35
2023-04-20T01:17:44.410Z,1015.35
2023-04-20T01:18:44.374Z,1015.33
2023-04-20T01:19:44.348Z,1015.35
2023-04-20T01:20:44.347Z,1015.34
2023-04-20T01:21:44.296Z,1015.34
2023-04-20T01:22:44.317Z,1015.32
2023-04-20T01:23:44.334Z,1015.28
2023-04-20T01:24:44.298Z,1015.26
2023-04-20T01:25:44.331Z,1015.23
2023-04-20T01:26:44.288Z,1015.20
2023-04-20T01:27:44.255Z,1015.19
2023-04-20T01:28:44.236Z,1015.18
2023-04-20T01:29:44.216Z,1015.17
2023-04-20T01:30:44.280Z,1015.16
2023-04-20T01:31:44.268Z,1015.14
2023-04-20T01:32:44.251Z,1015.15
2023-04-20T01:33:44.192Z,1015.12
2023-04-20T01:34:44.177Z,1015.09
2023-04-20T01:35:44.204Z,1015.09
2023-04-20T01:36:44.205Z,1015.06
2023-04-20T01:37:44.133Z,1015.07
2023-04-20T01:38:44.158Z,1015.03
2023-04-20T01:39:44.183Z,1015.04
2023-04-20T01:40:44.126Z,1014.97
2023-04-20T01:41:44.129Z,1014.98
2023-04-20T01:42:44.102Z,1014.98
2023-04-20T01:43:44.175Z,1014.95
2023-04-20T01:44:44.085Z,1014.92
2023-04-20T01:45:44.064Z,1014.91
2023-04-20T01:46:44.134Z,1014.88
2023-04-20T01:47:44.092Z,1014.84
2023-04-20T01:48:44.082Z,1014.76
2023-04-20T01:49:44.022Z,1014.77
2023-04-20T01:50:44.038Z,1014.79
2023-04-20T01:51:44.024Z,1014.80
2023-04-20T01:52:44.007Z,1014.78
2023-04-20T01:53:44.011Z,1014.80
2023-04-20T01:54:43.993Z,1014.79
2023-04-20T01:55:43.968Z,1014.81
2023-04-20T01:56:43.972Z,1014.81
2023-04-20T01:57:43.938Z,1014.78
2023-04-20T01:58:43.929Z,1014.75
2023-04-20T01:59:43.927Z,1014.73
2023-04-20T02:00:43.970Z,1014.73
2023-04-20T02:01:43.920Z,1014.74
2023-04-20T02:02:44.171Z,1014.73
2023-04-20T02:03:43.967Z,1014.71
2023-04-20T02:04:43.901Z,1014.67
2023-04-20T02:05:43.846Z,1014.65
2023-04-20T02:06:43.896Z,1014.61
2023-04-20T02:07:43.898Z,1014.58
2023-04-20T02:08:43.834Z,1014.57
2023-04-20T02:09:43.821Z,1014.53
2023-04-20T02:10:43.814Z,1014.52
2023-04-20T02:11:43.850Z,1014.47
2023-04-20T02:12:43.806Z,1014.44
2023-04-20T02:13:43.770Z,1014.43
2023-04-20T02:14:43.783Z,1014.42
2023-04-20T02:15:43.777Z,1014.37
2023-04-20T02:16:43.817Z,1014.39
2023-04-20T02:17:43.786Z,1014.44
2023-04-20T02:18:43.762Z,1014.49
2023-04-20T02:19:43.728Z,1014.45
2023-04-20T02:20:43.705Z,1014.45
2023-04-20T02:21:43.758Z,1014.46
2023-04-20T02:22:43.699Z,1014.48
2023-04-20T02:23:43.740Z,1014.46
2023-04-20T02:24:43.711Z,1014.43
2023-04-20T02:25:43.633Z,1014.48
2023-04-20T02:26:43.651Z,1014.44
2023-04-20T02:27:43.642Z,1014.42
2023-04-20T02:28:43.624Z,1014.43
2023-04-20T02:29:43.667Z,1014.40
2023-04-20T02:30:43.627Z,1014.43
2023-04-20T02:31:43.674Z,1014.41
2023-04-20T02:32:43.720Z,1014.39
2023-04-20T02:33:43.570Z,1014.38
2023-04-20T02:34:43.584Z,1014.33
2023-04-20T02:35:43.554Z,1014.31
2023-04-20T02:36:43.589Z,1014.31
2023-04-20T02:37:43.557Z,1014.27
2023-04-20T02:38:43.552Z,1014.25
2023-04-20T02:39:43.538Z,1014.25
2023-04-20T02:40:43.619Z,1014.26
2023-04-20T02:41:43.481Z,1014.26
2023-04-20T02:42:43.493Z,1014.31
2023-04-20T02:43:43.497Z,1014.30
2023-04-20T02:44:43.526Z,1014.29
2023-04-20T02:45:43.468Z,1014.27
2023-04-20T02:46:43.531Z,1014.25
2023-04-20T02:47:43.526Z,1014.28
2023-04-20T02:48:43.441Z,1014.27
2023-04-20T02:49:43.426Z,1014.29
2023-04-20T02:50:43.415Z,1014.34
2023-04-20T02:51:43.389Z,1014.34
2023-04-20T02:52:43.406Z,1014.34
2023-04-20T02:53:43.384Z,1014.36
2023-04-20T02:54:43.366Z,1014.35
2023-04-20T02:55:43.328Z,1014.33
2023-04-20T02:56:43.333Z,1014.30
2023-04-20T02:57:43.365Z,1014.31
2023-04-20T02:58:43.351Z,1014.27
2023-04-20T02:59:43.303Z,1014.28
2023-04-20T03:00:43.297Z,1014.20
2023-04-20T03:01:43.305Z,1014.20
2023-04-20T03:02:43.403Z,1014.15
2023-04-20T03:03:43.462Z,1014.16
2023-04-20T03:04:43.339Z,1014.14
2023-04-20T03:05:43.319Z,1014.15
2023-04-20T03:06:43.265Z,1014.16
2023-04-20T03:07:43.219Z,1014.14
2023-04-20T03:08:43.245Z,1014.14
2023-04-20T03:09:43.193Z,1014.16
2023-04-20T03:10:43.251Z,1014.17
2023-04-20T03:11:43.178Z,1014.12
2023-04-20T03:12:43.192Z,1014.11
2023-04-20T03:13:43.162Z,1014.10
2023-04-20T03:14:43.149Z,1014.15
2023-04-20T03:15:43.189Z,1014.12
2023-04-20T03:16:43.349Z,1014.12
2023-04-20T03:17:43.170Z,1014.11
2023-04-20T03:18:43.121Z,1014.12
2023-04-20T03:19:43.089Z,1014.12
2023-04-20T03:20:43.129Z,1014.14
2023-04-20T03:21:43.121Z,1014.15
2023-04-20T03:22:43.074Z,1014.16
2023-04-20T03:23:43.080Z,1014.13
2023-04-20T03:24:43.087Z,1014.14
2023-04-20T03:25:43.061Z,1014.13
2023-04-20T03:26:43.083Z,1014.15
2023-04-20T03:27:43.058Z,1014.12
2023-04-20T03:28:43.047Z,1014.12
2023-04-20T03:29:43.034Z,1014.15
2023-04-20T03:30:43.039Z,1014.16
2023-04-20T03:31:43.108Z,1014.10
2023-04-20T03:32:43.069Z,1014.09
2023-04-20T03:33:43.011Z,1014.09
2023-04-20T03:34:42.956Z,1014.10
2023-04-20T03:35:42.984Z,1014.08
2023-04-20T03:36:42.920Z,1014.08
2023-04-20T03:37:42.933Z,1014.08
2023-04-20T03:38:42.936Z,1014.04
2023-04-20T03:39:42.902Z,1014.04
2023-04-20T03:40:42.890Z,1014.02
2023-04-20T03:41:42.882Z,1014.05
2023-04-20T03:42:43.022Z,1014.04
2023-04-20T03:43:42.887Z,1014.02
2023-04-20T03:44:42.848Z,1014.00
2023-04-20T03:45:42.904Z,1014.00
2023-04-20T03:46:42.867Z,1013.93
2023-04-20T03:47:42.838Z,1014.01
2023-04-20T03:48:42.837Z,1014.00
2023-04-20T03:49:42.804Z,1014.04
2023-04-20T03:50:42.787Z,1013.99
2023-04-20T03:51:42.775Z,1014.01
2023-04-20T03:52:42.934Z,1013.96
2023-04-20T03:53:42.813Z,1013.97
2023-04-20T03:54:42.806Z,1013.94
2023-04-20T03:55:42.721Z,1013.94
2023-04-20T03:56:42.714Z,1014.00
2023-04-20T03:57:42.697Z,1013.92
2023-04-20T03:58:42.679Z,1013.95
2023-04-20T03:59:42.662Z,1013.98
2023-04-20T04:00:42.640Z,1013.90
2023-04-20T04:01:42.631Z,1014.01
2023-04-20T04:02:43.107Z,1013.94
2023-04-20T04:03:42.696Z,1013.93
2023-04-20T04:04:42.726Z,1013.89
2023-04-20T04:05:42.682Z,1013.86
2023-04-20T04:06:42.579Z,1013.83
2023-04-20T04:07:42.631Z,1013.82
2023-04-20T04:08:42.546Z,1013.89
2023-04-20T04:09:42.566Z,1013.81
2023-04-20T04:10:42.522Z,1013.80
2023-04-20T04:11:42.506Z,1013.77
2023-04-20T04:12:42.592Z,1013.79
2023-04-20T04:13:42.534Z,1013.77
2023-04-20T04:14:42.512Z,1013.86
2023-04-20T04:15:42.508Z,1013.84
2023-04-20T04:16:42.502Z,1013.89
2023-04-20T04:17:42.554Z,1013.93
2023-04-20T04:18:42.434Z,1013.89
2023-04-20T04:19:42.436Z,1013.89
2023-04-20T04:20:42.410Z,1013.87
2023-04-20T04:21:42.449Z,1013.81
2023-04-20T04:22:42.439Z,1013.78
2023-04-20T04:23:42.393Z,1013.80
2023-04-20T04:24:42.375Z,1013.80
2023-04-20T04:25:42.524Z,1013.83
2023-04-20T04:26:42.353Z,1013.82
2023-04-20T04:27:42.384Z,1013.81
2023-04-20T04:28:42.343Z,1013.82
2023-04-20T04:29:42.345Z,1013.80
2023-04-20T04:30:42.326Z,1013.81
2023-04-20T04:31:42.406Z,1013.80
2023-04-20T04:32:42.315Z,1013.82
2023-04-20T04:33:42.323Z,1013.81
2023-04-20T04:34:42.323Z,1013.83
2023-04-20T04:35:42.286Z,1013.85
2023-04-20T04:36:42.256Z,1013.83
2023-04-20T04:37:42.272Z,1013.77
2023-04-20T04:38:42.262Z,1013.79
2023-04-20T04:39:42.266Z,1013.80
2023-04-20T04:40:42.237Z,1013.80
2023-04-20T04:41:42.211Z,1013.82
2023-04-20T04:42:42.194Z,1013.80
2023-04-20T04:43:42.252Z,1013.87
2023-04-20T04:44:42.229Z,1013.83
2023-04-20T04:45:42.220Z,1013.82
2023-04-20T04:46:42.246Z,1013.80
2023-04-20T04:47:42.232Z,1013.81
2023-04-20T04:48:42.145Z,1013.80
2023-04-20T04:49:42.141Z,1013.81
2023-04-20T04:50:42.143Z,1013.80
2023-04-20T04:51:42.149Z,1013.83
2023-04-20T04:52:42.097Z,1013.84
2023-04-20T04:53:42.108Z,1013.87
2023-04-20T04:54:42.081Z,1013.83
2023-04-20T04:55:42.150Z,1013.88
2023-04-20T04:56:42.094Z,1013.87
2023-04-20T04:57:42.046Z,1013.88
2023-04-20T04:58:42.234Z,1013.88
2023-04-20T04:59:42.032Z,1013.86
2023-04-20T05:00:42.043Z,1013.88
2023-04-20T05:01:42.088Z,1013.87
2023-04-20T05:02:42.103Z,1013.89
2023-04-20T05:03:42.176Z,1013.90
2023-04-20T05:04:42.134Z,1013.89
2023-04-20T05:05:41.990Z,1013.86
2023-04-20T05:06:41.943Z,1013.88
2023-04-20T05:07:41.977Z,1013.87
2023-04-20T05:08:41.929Z,1013.89
2023-04-20T05:09:41.914Z,1013.92
2023-04-20T05:10:41.918Z,1013.91
2023-04-20T05:11:41.901Z,1013.93
2023-04-20T05:12:41.897Z,1013.91
2023-04-20T05:13:41.921Z,1013.92
2023-04-20T05:14:41.873Z,1013.89
2023-04-20T05:15:43.835Z,1013.91
2023-04-20T05:16:41.871Z,1013.87
2023-04-20T05:17:41.957Z,1013.96
2023-04-20T05:18:41.811Z,1013.90
2023-04-20T05:19:41.899Z,1013.96
2023-04-20T05:20:41.823Z,1013.95
2023-04-20T05:21:41.824Z,1013.90
2023-04-20T05:22:41.808Z,1013.90
2023-04-20T05:23:41.796Z,1013.90
2023-04-20T05:24:41.755Z,1013.90
2023-04-20T05:25:41.765Z,1013.94
2023-04-20T05:26:41.753Z,1013.96
2023-04-20T05:27:41.785Z,1013.96
2023-04-20T05:28:41.975Z,1013.96
2023-04-20T05:29:41.743Z,1013.93
2023-04-20T05:30:41.691Z,1013.94
2023-04-20T05:31:41.748Z,1013.92
2023-04-20T05:32:41.763Z,1013.90
2023-04-20T05:33:41.703Z,1013.90
2023-04-20T05:34:41.739Z,1013.90
2023-04-20T05:35:41.656Z,1013.94
2023-04-20T05:36:41.626Z,1013.92
2023-04-20T05:37:41.638Z,1013.94
2023-04-20T05:38:41.616Z,1013.93
2023-04-20T05:39:41.633Z,1013.93
2023-04-20T05:40:41.621Z,1013.93
2023-04-20T05:41:41.633Z,1013.93
2023-04-20T05:42:41.601Z,1013.92
2023-04-20T05:43:41.612Z,1013.87
2023-04-20T05:44:41.564Z,1013.86
2023-04-20T05:45:41.607Z,1013.83
2023-04-20T05:46:41.543Z,1013.81
2023-04-20T05:47:41.583Z,1013.83
2023-04-20T05:48:41.535Z,1013.82
2023-04-20T05:49:41.540Z,1013.84
2023-04-20T05:50:41.504Z,1013.85
2023-04-20T05:51:41.513Z,1013.85
2023-04-20T05:52:41.499Z,1013.86
2023-04-20T05:53:41.502Z,1013.89
2023-04-20T05:54:41.461Z,1013.91
2023-04-20T05:55:41.456Z,1013.94
2023-04-20T05:56:41.466Z,1013.96
2023-04-20T05:57:41.490Z,1013.98
2023-04-20T05:58:41.420Z,1014.00
2023-04-20T05:59:41.752Z,1014.00
2023-04-20T06:00:41.420Z,1014.00
2023-04-20T06:01:41.419Z,1014.01
2023-04-20T06:02:41.600Z,1014.02
2023-04-20T06:03:41.643Z,1014.05
2023-04-20T06:04:41.674Z,1014.05
2023-04-20T06:05:41.536Z,1014.07
2023-04-20T06:06:41.359Z,1014.09
2023-04-20T06:07:41.325Z,1014.07
2023-04-20T06:08:41.332Z,1014.04
2023-04-20T06:09:41.329Z,1014.09
2023-04-20T06:10:41.360Z,1014.10
2023-04-20T06:11:41.292Z,1014.04
2023-04-20T06:12:41.273Z,1014.06
2023-04-20T06:13:41.326Z,1014.05
2023-04-20T06:14:41.337Z,1014.02
2023-04-20T06:15:41.378Z,1014.02
2023-04-20T06:16:41.255Z,1014.02
2023-04-20T06:17:41.585Z,1014.00
2023-04-20T06:18:41.215Z,1013.99
2023-04-20T06:19:41.230Z,1014.04
2023-04-20T06:20:41.256Z,1014.00
2023-04-20T06:21:41.219Z,1014.00
2023-04-20T06:22:41.182Z,1013.99
2023-04-20T06:23:41.207Z,1014.00
2023-04-20T06:24:41.202Z,1013.99
2023-04-20T06:25:41.181Z,1014.01
2023-04-20T06:26:41.157Z,1014.00
2023-04-20T06:27:41.229Z,1013.98
2023-04-20T06:28:41.134Z,1013.98
2023-04-20T06:29:41.131Z,1013.97
2023-04-20T06:30:41.103Z,1013.93
2023-04-20T06:31:41.186Z,1013.92
2023-04-20T06:32:41.161Z,1013.92
2023-04-20T06:33:41.146Z,1013.95
2023-04-20T06:34:41.130Z,1013.95
2023-04-20T06:35:41.065Z,1013.95
2023-04-20T06:36:41.044Z,1013.97
2023-04-20T06:37:41.040Z,1013.96
2023-04-20T06:38:41.045Z,1014.02
2023-04-20T06:39:41.041Z,1013.94
2023-04-20T06:40:41.020Z,1013.95
2023-04-20T06:41:41.328Z,1013.96
2023-04-20T06:42:41.091Z,1013.96
2023-04-20T06:43:40.963Z,1013.94
2023-04-20T06:44:40.971Z,1013.94
2023-04-20T06:45:40.939Z,1013.91
2023-04-20T06:46:41.005Z,1013.88
2023-04-20T06:47:40.943Z,1013.89
2023-04-20T06:48:40.912Z,1013.92
2023-04-20T06:49:40.902Z,1013.91
2023-04-20T06:50:40.881Z,1013.90
2023-04-20T06:51:40.915Z,1013.88
2023-04-20T06:52:40.996Z,1013.91
2023-04-20T06:53:40.913Z,1013.92
2023-04-20T06:54:40.924Z,1013.92
2023-04-20T06:55:40.823Z,1013.89
2023-04-20T06:56:40.838Z,1013.89
2023-04-20T06:57:40.884Z,1013.86
2023-04-20T06:58:40.843Z,1013.89
2023-04-20T06:59:40.790Z,1013.89
2023-04-20T07:00:40.805Z,1013.89
2023-04-20T07:01:40.867Z,1013.84
2023-04-20T07:02:40.820Z,1013.88
2023-04-20T07:03:40.880Z,1013.88
2023-04-20T07:04:40.806Z,1013.86
2023-04-20T07:05:40.776Z,1013.92
2023-04-20T07:06:40.706Z,1013.90
2023-04-20T07:07:40.752Z,1013.89
2023-04-20T07:08:40.719Z,1013.92
2023-04-20T07:09:40.743Z,1013.94
2023-04-20T07:10:40.687Z,1013.95
2023-04-20T07:11:40.713Z,1013.93
2023-04-20T07:12:42.808Z,1013.94
2023-04-20T07:13:40.668Z,1013.93
2023-04-20T07:14:40.716Z,1013.96
2023-04-20T07:15:40.680Z,1013.93
2023-04-20T07:16:40.709Z,1013.92
2023-04-20T07:17:40.699Z,1013.93
2023-04-20T07:18:40.584Z,1013.92
2023-04-20T07:19:40.614Z,1013.96
2023-04-20T07:20:40.605Z,1013.95
2023-04-20T07:21:40.587Z,1013.94
2023-04-20T07:22:40.574Z,1013.93
2023-04-20T07:23:41.479Z,1013.93
2023-04-20T07:24:40.537Z,1013.92
2023-04-20T07:25:40.536Z,1013.93
2023-04-20T07:26:40.520Z,1013.94
2023-04-20T07:27:40.525Z,1013.93
2023-04-20T07:28:40.539Z,1013.88
2023-04-20T07:29:40.485Z,1013.91
2023-04-20T07:30:40.569Z,1013.90
2023-04-20T07:31:40.489Z,1013.88
2023-04-20T07:32:40.588Z,1013.88
2023-04-20T07:33:40.464Z,1013.89
2023-04-20T07:34:40.458Z,1013.87
2023-04-20T07:35:40.441Z,1013.85
2023-04-20T07:36:40.458Z,1013.84
2023-04-20T07:37:40.771Z,1013.86
2023-04-20T07:38:40.439Z,1013.84
2023-04-20T07:39:40.399Z,1013.86
2023-04-20T07:40:40.389Z,1013.84
2023-04-20T07:41:40.423Z,1013.90
2023-04-20T07:42:40.438Z,1013.84
2023-04-20T07:43:40.468Z,1013.82
2023-04-20T07:44:40.363Z,1013.87
2023-04-20T07:45:40.372Z,1013.85
2023-04-20T07:46:40.320Z,1013.79
2023-04-20T07:47:40.377Z,1013.74
2023-04-20T07:48:40.311Z,1013.68
2023-04-20T07:49:40.295Z,1013.63
2023-04-20T07:50:40.309Z,1013.73
2023-04-20T07:51:40.299Z,1013.72
2023-04-20T07:52:40.288Z,1013.75
2023-04-20T07:53:41.142Z,1013.74
2023-04-20T07:54:40.258Z,1013.70
2023-04-20T07:55:40.286Z,1013.68
2023-04-20T07:56:40.234Z,1013.68
2023-04-20T07:57:40.352Z,1013.68
2023-04-20T07:58:40.217Z,1013.71
2023-04-20T07:59:40.191Z,1013.68
2023-04-20T08:00:40.237Z,1013.72
2023-04-20T08:01:40.219Z,1013.73
2023-04-20T08:02:40.359Z,1013.69
2023-04-20T08:03:40.444Z,1013.71
2023-04-20T08:04:40.554Z,1013.69
2023-04-20T08:05:40.248Z,1013.70
2023-04-20T08:06:40.123Z,1013.67
2023-04-20T08:07:40.146Z,1013.69
2023-04-20T08:08:40.096Z,1013.69
2023-04-20T08:09:40.146Z,1013.67
2023-04-20T08:10:40.085Z,1013.67
2023-04-20T08:11:40.084Z,1013.71
2023-04-20T08:12:40.084Z,1013.70
2023-04-20T08:13:40.185Z,1013.69
2023-04-20T08:14:40.059Z,1013.68
2023-04-20T08:15:40.273Z,1013.67
2023-04-20T08:16:40.344Z,1013.68
2023-04-20T08:17:40.030Z,1013.67
2023-04-20T08:18:40.034Z,1013.66
2023-04-20T08:19:41.027Z,1013.65
2023-04-20T08:20:39.973Z,1013.65
2023-04-20T08:21:39.960Z,1013.67
2023-04-20T08:22:40.005Z,1013.67
2023-04-20T08:23:40.016Z,1013.63
2023-04-20T08:24:39.926Z,1013.65
2023-04-20T08:25:39.978Z,1013.67
2023-04-20T08:26:39.943Z,1013.63
2023-04-20T08:27:39.913Z,1013.65
2023-04-20T08:28:39.896Z,1013.67
2023-04-20T08:29:39.861Z,1013.68
2023-04-20T08:30:39.879Z,1013.65
2023-04-20T08:31:39.932Z,1013.70
2023-04-20T08:32:39.881Z,1013.67
2023-04-20T08:33:39.899Z,1013.69
2023-04-20T08:34:39.837Z,1013.65
2023-04-20T08:35:39.854Z,1013.64
2023-04-20T08:36:39.849Z,1013.63
2023-04-20T08:37:39.814Z,1013.61
2023-04-20T08:38:39.802Z,1013.67
2023-04-20T08:39:39.795Z,1013.64
2023-04-20T08:40:39.794Z,1013.59
2023-04-20T08:41:39.746Z,1013.62
2023-04-20T08:42:39.787Z,1013.60
2023-04-20T08:43:39.759Z,1013.62
2023-04-20T08:44:39.749Z,1013.64
2023-04-20T08:45:39.704Z,1013.62
2023-04-20T08:46:39.749Z,1013.61
2023-04-20T08:47:39.759Z,1013.59
2023-04-20T08:48:39.702Z,1013.57
2023-04-20T08:49:39.674Z,1013.59
2023-04-20T08:50:39.673Z,1013.58
2023-04-20T08:51:39.690Z,1013.57
2023-04-20T08:52:39.680Z,1013.56
2023-04-20T08:53:39.649Z,1013.54
2023-04-20T08:54:45.865Z,1013.55
2023-04-20T08:55:39.595Z,1013.57
2023-04-20T08:56:39.655Z,1013.54
2023-04-20T08:57:39.619Z,1013.57
2023-04-20T08:58:39.593Z,1013.56
2023-04-20T08:59:39.594Z,1013.55
2023-04-20T09:00:39.588Z,1013.51
2023-04-20T09:01:39.722Z,1013.55
2023-04-20T09:02:40.312Z,1013.54
2023-04-20T09:03:39.724Z,1013.55
2023-04-20T09:04:39.669Z,1013.55
2023-04-20T09:05:39.505Z,1013.54
2023-04-20T09:06:39.532Z,1013.55
2023-04-20T09:07:39.529Z,1013.54
2023-04-20T09:08:39.499Z,1013.53
2023-04-20T09:09:39.546Z,1013.52
2023-04-20T09:10:39.498Z,1013.55
2023-04-20T09:11:39.460Z,1013.56
2023-04-20T09:12:39.484Z,1013.53
2023-04-20T09:13:39.457Z,1013.53
2023-04-20T09:14:39.422Z,1013.52
2023-04-20T09:15:39.415Z,1013.52
2023-04-20T09:16:39.605Z,1013.54
2023-04-20T09:17:39.506Z,1013.52
2023-04-20T09:18:39.433Z,1013.48
2023-04-20T09:19:39.349Z,1013.51
2023-04-20T09:20:39.358Z,1013.48
2023-04-20T09:21:39.337Z,1013.51
2023-04-20T09:22:39.365Z,1013.51
2023-04-20T09:23:39.343Z,1013.54
2023-04-20T09:24:39.338Z,1013.50
2023-04-20T09:25:39.342Z,1013.52
2023-04-20T09:26:39.305Z,1013.49
2023-04-20T09:27:39.297Z,1013.47
2023-04-20T09:28:39.312Z,1013.44
2023-04-20T09:29:39.272Z,1013.45
2023-04-20T09:30:39.258Z,1013.40
2023-04-20T09:31:39.300Z,1013.40
2023-04-20T09:32:39.299Z,1013.39
2023-04-20T09:33:39.354Z,1013.38
2023-04-20T09:34:39.226Z,1013.37
2023-04-20T09:35:39.219Z,1013.43
2023-04-20T09:36:39.207Z,1013.46
2023-04-20T09:37:39.176Z,1013.42
2023-04-20T09:38:39.247Z,1013.41
2023-04-20T09:39:39.177Z,1013.37
2023-04-20T09:40:39.142Z,1013.38
2023-04-20T09:41:39.155Z,1013.37
2023-04-20T09:42:39.128Z,1013.39
2023-04-20T09:43:39.204Z,1013.41
2023-04-20T09:44:39.113Z,1013.43
2023-04-20T09:45:39.561Z,1013.35
2023-04-20T09:46:39.085Z,1013.40
2023-04-20T09:47:39.917Z,1013.41
2023-04-20T09:48:39.058Z,1013.38
2023-04-20T09:49:39.051Z,1013.40
2023-04-20T09:50:48.658Z,1013.43
2023-04-20T09:51:39.039Z,1013.43
2023-04-20T09:52:39.094Z,1013.45
2023-04-20T09:53:39.010Z,1013.41
2023-04-20T09:54:39.002Z,1013.47
2023-04-20T09:55:39.014Z,1013.46
2023-04-20T09:56:39.016Z,1013.47
2023-04-20T09:57:39.044Z,1013.48
2023-04-20T09:58:39.000Z,1013.46
2023-04-20T09:59:38.931Z,1013.49
2023-04-20T10:00:38.949Z,1013.50
2023-04-20T10:01:39.002Z,1013.51
2023-04-20T10:02:38.998Z,1013.51
2023-04-20T10:03:39.054Z,1013.49
2023-04-20T10:04:39.036Z,1013.44
2023-04-20T10:05:38.991Z,1013.48
2023-04-20T10:06:38.922Z,1013.45
2023-04-20T10:07:38.961Z,1013.43
2023-04-20T10:08:38.936Z,1013.40
2023-04-20T10:09:38.846Z,1013.41
2023-04-20T10:10:38.869Z,1013.39
2023-04-20T10:11:51.611Z,1013.35
2023-04-20T10:12:38.830Z,1013.39
2023-04-20T10:13:38.798Z,1013.40
2023-04-20T10:14:38.807Z,1013.32
2023-04-20T10:15:38.788Z,1013.31
2023-04-20T10:16:38.951Z,1013.34
2023-04-20T10:17:38.882Z,1013.35
2023-04-20T10:18:38.868Z,1013.28
2023-04-20T10:19:38.814Z,1013.29
2023-04-20T10:20:38.794Z,1013.32
2023-04-20T10:21:38.795Z,1013.33
2023-04-20T10:22:38.781Z,1013.38
2023-04-20T10:23:38.696Z,1013.32
2023-04-20T10:24:38.724Z,1013.31
2023-04-20T10:25:38.725Z,1013.34
2023-04-20T10:26:38.674Z,1013.30
2023-04-20T10:27:38.651Z,1013.33
2023-04-20T10:28:38.668Z,1013.30
2023-04-20T10:29:38.630Z,1013.31
2023-04-20T10:30:38.771Z,1013.26
2023-04-20T10:31:38.615Z,1013.28
2023-04-20T10:32:38.754Z,1013.30
2023-04-20T10:33:38.622Z,1013.30
2023-04-20T10:34:38.602Z,1013.32
2023-04-20T10:35:38.569Z,1013.29
2023-04-20T10:36:38.587Z,1013.29
2023-04-20T10:37:38.569Z,1013.31
2023-04-20T10:38:38.572Z,1013.27
2023-04-20T10:39:38.591Z,1013.26
2023-04-20T10:40:38.569Z,1013.27
2023-04-20T10:41:38.527Z,1013.26
2023-04-20T10:42:38.519Z,1013.31
2023-04-20T10:43:38.511Z,1013.29
2023-04-20T10:44:38.504Z,1013.28
2023-04-20T10:45:38.502Z,1013.31
2023-04-20T10:46:38.485Z,1013.32
2023-04-20T10:47:38.549Z,1013.29
2023-04-20T10:48:38.451Z,1013.31
2023-04-20T10:49:38.504Z,1013.26
2023-04-20T10:50:38.455Z,1013.29
2023-04-20T10:51:38.381Z,1013.25
2023-04-20T10:52:38.431Z,1013.23
2023-04-20T10:53:38.456Z,1013.24
2023-04-20T10:54:38.586Z,1013.22
2023-04-20T10:55:38.347Z,1013.25
2023-04-20T10:56:38.433Z,1013.26
2023-04-20T10:57:38.375Z,1013.23
2023-04-20T10:58:38.349Z,1013.24
2023-04-20T10:59:38.318Z,1013.22
2023-04-20T11:00:38.378Z,1013.20
2023-04-20T11:01:38.338Z,1013.18
2023-04-20T11:02:38.493Z,1013.19
2023-04-20T11:03:38.480Z,1013.19
2023-04-20T11:04:38.297Z,1013.11
2023-04-20T11:05:38.238Z,1013.17
2023-04-20T11:06:38.253Z,1013.15
2023-04-20T11:07:38.267Z,1013.24
2023-04-20T11:08:38.250Z,1013.19
2023-04-20T11:09:38.212Z,1013.17
2023-04-20T11:10:38.231Z,1013.19
2023-04-20T11:11:38.249Z,1013.23
2023-04-20T11:12:38.208Z,1013.16
2023-04-20T11:13:38.169Z,1013.19
2023-04-20T11:14:38.271Z,1013.19
2023-04-20T11:15:38.178Z,1013.13
2023-04-20T11:16:49.754Z,1013.16
2023-04-20T11:17:38.192Z,1013.15
2023-04-20T11:18:38.119Z,1013.11
2023-04-20T11:19:38.119Z,1013.12
2023-04-20T11:20:38.121Z,1013.11
2023-04-20T11:21:38.081Z,1013.15
2023-04-20T11:22:38.080Z,1013.12
2023-04-20T11:23:38.058Z,1013.08
2023-04-20T11:24:38.030Z,1013.05
2023-04-20T11:25:38.065Z,1013.05
2023-04-20T11:26:38.070Z,1013.02
2023-04-20T11:27:38.020Z,1013.01
2023-04-20T11:28:37.997Z,1013.10
2023-04-20T11:29:38.064Z,1013.06
2023-04-20T11:30:39.055Z,1013.00
2023-04-20T11:31:38.026Z,1013.00
2023-04-20T11:32:38.137Z,1012.98
2023-04-20T11:33:38.009Z,1012.95
2023-04-20T11:34:37.965Z,1012.98
2023-04-20T11:35:37.939Z,1012.98
2023-04-20T11:36:37.912Z,1012.95
2023-04-20T11:37:37.931Z,1013.01
2023-04-20T11:38:37.879Z,1012.95
2023-04-20T11:39:37.917Z,1012.98
2023-04-20T11:40:37.898Z,1013.01
2023-04-20T11:41:37.851Z,1013.02
2023-04-20T11:42:37.894Z,1013.02
2023-04-20T11:43:37.878Z,1012.99
2023-04-20T11:44:37.859Z,1013.04
2023-04-20T11:45:37.850Z,1013.02
2023-04-20T11:46:37.867Z,1013.05
2023-04-20T11:47:37.856Z,1013.00
2023-04-20T11:48:37.829Z,1013.01
2023-04-20T11:49:37.802Z,1013.00
2023-04-20T11:50:39.294Z,1013.05
2023-04-20T11:51:37.764Z,1013.05
2023-04-20T11:52:37.759Z,1013.03
2023-04-20T11:53:37.708Z,1013.01
2023-04-20T11:54:37.773Z,1013.03
2023-04-20T11:55:37.721Z,1013.02
2023-04-20T11:56:37.727Z,1013.05
2023-04-20T11:57:37.667Z,1013.00
2023-04-20T11:58:37.691Z,1013.02
2023-04-20T11:59:37.690Z,1013.02
2023-04-20T12:00:37.699Z,1013.04
2023-04-20T12:01:37.650Z,1013.04
2023-04-20T12:02:37.726Z,1012.97
2023-04-20T12:03:37.801Z,1012.98
2023-04-20T12:04:37.798Z,1012.98
2023-04-20T12:05:38.341Z,1013.00